Bree, Belgium
Current Conditions -  °F | °C
As of 3:25 PM on Thursday 27 Nov 2014 (Local Time) from EBBL Reporting Station
Moderate Rain Moderate Rain  
Wind Chill: 43°   Ceiling: 3500
Heat Index: 46°   Visibility: 1.1mi
Dew Point: 45°   Wind: 7mph
Humidity: 93%   Direction: 90°E
Pressure: 29.71"   Gusts: NA
Location:  51.14°N, 5.6°E
Report Text: EBBL 271425Z 09006KT 1800 DZRA FEW004 SCT015 BKN035 08/07 Q1006 YLO GRN TEMPO AMB
Loading
Personal Weather Stations






























Interactive Weather Map New forecast layout! Learn more

10-Day Weather Forecast

Advertisements
Track Severe Weather on mobile